sensor_id;sensor_type;location;lat;lon;timestamp;P1;durP1;ratioP1;P2;durP2;ratioP2
58681;SDS011;44460;40.162;18.294;2022-11-25T00:01:39;6.40;;;2.72;;
58681;SDS011;44460;40.162;18.294;2022-11-25T00:04:04;7.03;;;3.22;;
58681;SDS011;44460;40.162;18.294;2022-11-25T00:06:31;10.07;;;3.85;;
58681;SDS011;44460;40.162;18.294;2022-11-25T00:08:57;9.77;;;4.00;;
58681;SDS011;44460;40.162;18.294;2022-11-25T00:11:23;9.93;;;3.30;;
58681;SDS011;44460;40.162;18.294;2022-11-25T00:13:49;8.90;;;2.80;;
58681;SDS011;44460;40.162;18.294;2022-11-25T00:16:15;7.70;;;2.65;;
58681;SDS011;44460;40.162;18.294;2022-11-25T00:18:45;9.88;;;2.92;;
58681;SDS011;44460;40.162;18.294;2022-11-25T00:21:12;6.47;;;2.83;;
58681;SDS011;44460;40.162;18.294;2022-11-25T00:23:38;8.18;;;2.83;;
58681;SDS011;44460;40.162;18.294;2022-11-25T00:26:07;10.23;;;2.47;;
58681;SDS011;44460;40.162;18.294;2022-11-25T00:28:33;7.63;;;2.40;;
58681;SDS011;44460;40.162;18.294;2022-11-25T00:31:09;10.30;;;2.65;;
58681;SDS011;44460;40.162;18.294;2022-11-25T00:33:35;10.98;;;3.30;;
58681;SDS011;44460;40.162;18.294;2022-11-25T00:36:01;7.43;;;2.90;;
58681;SDS011;44460;40.162;18.294;2022-11-25T00:38:27;9.15;;;2.83;;
58681;SDS011;44460;40.162;18.294;2022-11-25T00:40:53;5.35;;;2.55;;
58681;SDS011;44460;40.162;18.294;2022-11-25T00:43:37;7.68;;;2.88;;
58681;SDS011;44460;40.162;18.294;2022-11-25T00:46:20;13.07;;;3.75;;
58681;SDS011;44460;40.162;18.294;2022-11-25T00:48:46;8.85;;;3.10;;
58681;SDS011;44460;40.162;18.294;2022-11-25T00:51:11;9.20;;;2.95;;
58681;SDS011;44460;40.162;18.294;2022-11-25T00:53:37;10.73;;;3.30;;
58681;SDS011;44460;40.162;18.294;2022-11-25T00:56:02;10.43;;;2.92;;
58681;SDS011;44460;40.162;18.294;2022-11-25T00:58:37;9.38;;;2.88;;
58681;SDS011;44460;40.162;18.294;2022-11-25T01:01:03;6.45;;;2.92;;
58681;SDS011;44460;40.162;18.294;2022-11-25T01:03:28;13.13;;;3.88;;
58681;SDS011;44460;40.162;18.294;2022-11-25T01:05:53;10.18;;;3.60;;
58681;SDS011;44460;40.162;18.294;2022-11-25T01:08:19;11.55;;;3.60;;
58681;SDS011;44460;40.162;18.294;2022-11-25T01:10:44;11.32;;;3.83;;
58681;SDS011;44460;40.162;18.294;2022-11-25T01:13:10;11.88;;;4.07;;
58681;SDS011;44460;40.162;18.294;2022-11-25T01:15:36;10.32;;;3.83;;
58681;SDS011;44460;40.162;18.294;2022-11-25T01:18:01;11.05;;;3.88;;
58681;SDS011;44460;40.162;18.294;2022-11-25T01:20:26;9.57;;;3.60;;
58681;SDS011;44460;40.162;18.294;2022-11-25T01:22:52;10.05;;;3.97;;
58681;SDS011;44460;40.162;18.294;2022-11-25T01:25:17;9.30;;;4.07;;
58681;SDS011;44460;40.162;18.294;2022-11-25T01:27:43;11.65;;;3.92;;
58681;SDS011;44460;40.162;18.294;2022-11-25T01:30:08;11.20;;;4.43;;
58681;SDS011;44460;40.162;18.294;2022-11-25T01:32:34;16.73;;;5.15;;
58681;SDS011;44460;40.162;18.294;2022-11-25T01:34:59;10.27;;;4.45;;
58681;SDS011;44460;40.162;18.294;2022-11-25T01:37:25;10.02;;;4.53;;
58681;SDS011;44460;40.162;18.294;2022-11-25T01:39:50;11.18;;;4.47;;
58681;SDS011;44460;40.162;18.294;2022-11-25T01:42:16;13.48;;;4.43;;
58681;SDS011;44460;40.162;18.294;2022-11-25T01:44:41;12.48;;;4.78;;
58681;SDS011;44460;40.162;18.294;2022-11-25T01:47:12;11.05;;;5.25;;
58681;SDS011;44460;40.162;18.294;2022-11-25T01:49:49;15.45;;;5.55;;
58681;SDS011;44460;40.162;18.294;2022-11-25T01:52:22;19.10;;;5.43;;
58681;SDS011;44460;40.162;18.294;2022-11-25T01:54:51;14.23;;;5.47;;
58681;SDS011;44460;40.162;18.294;2022-11-25T01:57:19;12.82;;;5.45;;
58681;SDS011;44460;40.162;18.294;2022-11-25T01:59:47;13.77;;;4.97;;
58681;SDS011;44460;40.162;18.294;2022-11-25T02:02:14;12.88;;;5.57;;
58681;SDS011;44460;40.162;18.294;2022-11-25T02:04:40;13.98;;;5.10;;
58681;SDS011;44460;40.162;18.294;2022-11-25T02:07:08;10.68;;;5.30;;
58681;SDS011;44460;40.162;18.294;2022-11-25T02:09:36;11.02;;;5.80;;
58681;SDS011;44460;40.162;18.294;2022-11-25T02:14:28;11.35;;;5.45;;
58681;SDS011;44460;40.162;18.294;2022-11-25T02:16:54;12.52;;;5.13;;
58681;SDS011;44460;40.162;18.294;2022-11-25T02:19:22;12.13;;;5.03;;
58681;SDS011;44460;40.162;18.294;2022-11-25T02:21:49;13.65;;;5.60;;
58681;SDS011;44460;40.162;18.294;2022-11-25T02:24:23;10.73;;;5.18;;
58681;SDS011;44460;40.162;18.294;2022-11-25T02:26:51;11.63;;;4.97;;
58681;SDS011;44460;40.162;18.294;2022-11-25T02:29:16;14.27;;;4.80;;
58681;SDS011;44460;40.162;18.294;2022-11-25T02:31:42;11.13;;;4.75;;
58681;SDS011;44460;40.162;18.294;2022-11-25T02:34:08;13.05;;;4.82;;
58681;SDS011;44460;40.162;18.294;2022-11-25T02:36:34;10.60;;;4.68;;
58681;SDS011;44460;40.162;18.294;2022-11-25T02:39:00;13.18;;;4.50;;
58681;SDS011;44460;40.162;18.294;2022-11-25T02:41:48;9.15;;;4.10;;
58681;SDS011;44460;40.162;18.294;2022-11-25T02:44:16;9.50;;;4.43;;
58681;SDS011;44460;40.162;18.294;2022-11-25T02:46:42;10.95;;;4.40;;
58681;SDS011;44460;40.162;18.294;2022-11-25T02:49:07;10.45;;;4.07;;
58681;SDS011;44460;40.162;18.294;2022-11-25T02:51:33;11.77;;;4.38;;
58681;SDS011;44460;40.162;18.294;2022-11-25T02:53:59;9.68;;;3.90;;
58681;SDS011;44460;40.162;18.294;2022-11-25T02:56:27;10.55;;;3.80;;
58681;SDS011;44460;40.162;18.294;2022-11-25T02:58:53;8.95;;;4.15;;
58681;SDS011;44460;40.162;18.294;2022-11-25T03:01:19;12.77;;;4.68;;
58681;SDS011;44460;40.162;18.294;2022-11-25T03:03:47;8.73;;;3.88;;
58681;SDS011;44460;40.162;18.294;2022-11-25T03:06:13;12.27;;;4.32;;
58681;SDS011;44460;40.162;18.294;2022-11-25T03:08:38;9.63;;;4.03;;
58681;SDS011;44460;40.162;18.294;2022-11-25T03:11:07;11.63;;;3.80;;
58681;SDS011;44460;40.162;18.294;2022-11-25T03:13:33;9.48;;;4.55;;
58681;SDS011;44460;40.162;18.294;2022-11-25T03:15:58;11.98;;;4.18;;
58681;SDS011;44460;40.162;18.294;2022-11-25T03:18:24;11.10;;;3.83;;
58681;SDS011;44460;40.162;18.294;2022-11-25T03:20:53;6.78;;;3.25;;
58681;SDS011;44460;40.162;18.294;2022-11-25T03:23:19;9.48;;;4.18;;
58681;SDS011;44460;40.162;18.294;2022-11-25T03:25:44;10.75;;;3.50;;
58681;SDS011;44460;40.162;18.294;2022-11-25T03:28:10;10.00;;;4.40;;
58681;SDS011;44460;40.162;18.294;2022-11-25T03:30:35;11.15;;;4.22;;
58681;SDS011;44460;40.162;18.294;2022-11-25T03:33:02;7.90;;;3.67;;
58681;SDS011;44460;40.162;18.294;2022-11-25T03:35:27;10.13;;;4.15;;
58681;SDS011;44460;40.162;18.294;2022-11-25T03:37:53;10.88;;;4.20;;
58681;SDS011;44460;40.162;18.294;2022-11-25T03:40:19;10.38;;;4.40;;
58681;SDS011;44460;40.162;18.294;2022-11-25T03:42:44;9.63;;;4.30;;
58681;SDS011;44460;40.162;18.294;2022-11-25T03:45:11;10.32;;;4.28;;
58681;SDS011;44460;40.162;18.294;2022-11-25T03:47:42;12.65;;;5.43;;
58681;SDS011;44460;40.162;18.294;2022-11-25T03:50:09;12.77;;;4.88;;
58681;SDS011;44460;40.162;18.294;2022-11-25T03:52:35;10.02;;;4.05;;
58681;SDS011;44460;40.162;18.294;2022-11-25T03:55:01;8.88;;;4.05;;
58681;SDS011;44460;40.162;18.294;2022-11-25T03:57:30;9.80;;;4.15;;
58681;SDS011;44460;40.162;18.294;2022-11-25T03:59:56;9.48;;;4.63;;
58681;SDS011;44460;40.162;18.294;2022-11-25T04:02:21;8.18;;;3.70;;
58681;SDS011;44460;40.162;18.294;2022-11-25T04:04:48;9.95;;;4.07;;
58681;SDS011;44460;40.162;18.294;2022-11-25T04:07:15;8.93;;;4.22;;
58681;SDS011;44460;40.162;18.294;2022-11-25T04:09:41;12.82;;;3.90;;
58681;SDS011;44460;40.162;18.294;2022-11-25T04:12:08;8.63;;;3.45;;
58681;SDS011;44460;40.162;18.294;2022-11-25T04:14:57;9.50;;;3.67;;
58681;SDS011;44460;40.162;18.294;2022-11-25T04:17:22;11.55;;;3.90;;
58681;SDS011;44460;40.162;18.294;2022-11-25T04:19:49;11.05;;;4.00;;
58681;SDS011;44460;40.162;18.294;2022-11-25T04:22:15;14.27;;;4.22;;
58681;SDS011;44460;40.162;18.294;2022-11-25T04:24:43;74.05;;;11.27;;
58681;SDS011;44460;40.162;18.294;2022-11-25T04:27:11;14.88;;;4.00;;
58681;SDS011;44460;40.162;18.294;2022-11-25T04:29:36;10.05;;;3.42;;
58681;SDS011;44460;40.162;18.294;2022-11-25T04:32:03;11.98;;;3.70;;
58681;SDS011;44460;40.162;18.294;2022-11-25T04:34:28;8.80;;;3.72;;
58681;SDS011;44460;40.162;18.294;2022-11-25T04:36:54;11.02;;;3.47;;
58681;SDS011;44460;40.162;18.294;2022-11-25T04:39:19;10.40;;;3.47;;
58681;SDS011;44460;40.162;18.294;2022-11-25T04:41:49;8.38;;;3.22;;
58681;SDS011;44460;40.162;18.294;2022-11-25T04:44:14;7.97;;;3.53;;
58681;SDS011;44460;40.162;18.294;2022-11-25T04:46:40;7.47;;;3.35;;
58681;SDS011;44460;40.162;18.294;2022-11-25T04:49:06;8.27;;;3.13;;
58681;SDS011;44460;40.162;18.294;2022-11-25T04:51:32;6.93;;;3.05;;
58681;SDS011;44460;40.162;18.294;2022-11-25T04:54:01;13.70;;;4.18;;
58681;SDS011;44460;40.162;18.294;2022-11-25T04:56:28;12.15;;;3.10;;
58681;SDS011;44460;40.162;18.294;2022-11-25T04:58:54;6.95;;;2.95;;
58681;SDS011;44460;40.162;18.294;2022-11-25T05:01:42;8.88;;;3.22;;
58681;SDS011;44460;40.162;18.294;2022-11-25T05:04:40;10.70;;;2.92;;
58681;SDS011;44460;40.162;18.294;2022-11-25T05:07:07;9.82;;;3.10;;
58681;SDS011;44460;40.162;18.294;2022-11-25T05:09:33;7.00;;;3.28;;
58681;SDS011;44460;40.162;18.294;2022-11-25T05:12:06;11.30;;;3.40;;
58681;SDS011;44460;40.162;18.294;2022-11-25T05:14:32;9.80;;;3.13;;
58681;SDS011;44460;40.162;18.294;2022-11-25T05:17:00;7.97;;;3.20;;
58681;SDS011;44460;40.162;18.294;2022-11-25T05:19:26;8.25;;;3.22;;
58681;SDS011;44460;40.162;18.294;2022-11-25T05:21:51;7.22;;;3.17;;
58681;SDS011;44460;40.162;18.294;2022-11-25T05:24:17;15.10;;;3.53;;
58681;SDS011;44460;40.162;18.294;2022-11-25T05:26:43;7.95;;;3.33;;
58681;SDS011;44460;40.162;18.294;2022-11-25T05:29:09;7.25;;;3.30;;
58681;SDS011;44460;40.162;18.294;2022-11-25T05:31:34;9.07;;;3.40;;
58681;SDS011;44460;40.162;18.294;2022-11-25T05:34:00;7.32;;;2.85;;
58681;SDS011;44460;40.162;18.294;2022-11-25T05:36:26;10.18;;;3.30;;
58681;SDS011;44460;40.162;18.294;2022-11-25T05:38:52;9.02;;;3.15;;
58681;SDS011;44460;40.162;18.294;2022-11-25T05:41:30;45.50;;;5.93;;
58681;SDS011;44460;40.162;18.294;2022-11-25T05:43:56;8.23;;;3.20;;
58681;SDS011;44460;40.162;18.294;2022-11-25T05:46:23;9.95;;;2.83;;
58681;SDS011;44460;40.162;18.294;2022-11-25T05:48:53;7.93;;;3.10;;
58681;SDS011;44460;40.162;18.294;2022-11-25T05:51:19;7.80;;;2.95;;
58681;SDS011;44460;40.162;18.294;2022-11-25T05:53:44;13.18;;;4.05;;
58681;SDS011;44460;40.162;18.294;2022-11-25T05:56:10;8.90;;;3.38;;
58681;SDS011;44460;40.162;18.294;2022-11-25T05:59:04;7.95;;;3.10;;
58681;SDS011;44460;40.162;18.294;2022-11-25T06:01:41;9.38;;;3.22;;
58681;SDS011;44460;40.162;18.294;2022-11-25T06:04:07;16.63;;;3.10;;
58681;SDS011;44460;40.162;18.294;2022-11-25T06:06:33;12.50;;;3.38;;
58681;SDS011;44460;40.162;18.294;2022-11-25T06:08:58;10.85;;;3.33;;
58681;SDS011;44460;40.162;18.294;2022-11-25T06:11:24;6.18;;;2.83;;
58681;SDS011;44460;40.162;18.294;2022-11-25T06:13:50;6.88;;;2.45;;
58681;SDS011;44460;40.162;18.294;2022-11-25T06:16:17;7.93;;;2.85;;
58681;SDS011;44460;40.162;18.294;2022-11-25T06:18:46;4.80;;;2.10;;
58681;SDS011;44460;40.162;18.294;2022-11-25T06:21:12;5.55;;;2.00;;
58681;SDS011;44460;40.162;18.294;2022-11-25T06:23:38;8.50;;;2.40;;
58681;SDS011;44460;40.162;18.294;2022-11-25T06:26:14;5.10;;;2.17;;
58681;SDS011;44460;40.162;18.294;2022-11-25T06:28:40;5.55;;;2.15;;
58681;SDS011;44460;40.162;18.294;2022-11-25T06:31:11;6.18;;;2.17;;
58681;SDS011;44460;40.162;18.294;2022-11-25T06:33:46;6.95;;;2.00;;
58681;SDS011;44460;40.162;18.294;2022-11-25T06:36:12;6.43;;;1.98;;
58681;SDS011;44460;40.162;18.294;2022-11-25T06:38:44;5.05;;;1.80;;
58681;SDS011;44460;40.162;18.294;2022-11-25T06:41:10;5.50;;;2.10;;
58681;SDS011;44460;40.162;18.294;2022-11-25T06:43:36;8.50;;;1.98;;
58681;SDS011;44460;40.162;18.294;2022-11-25T06:46:05;10.73;;;5.35;;
58681;SDS011;44460;40.162;18.294;2022-11-25T06:48:31;6.07;;;2.00;;
58681;SDS011;44460;40.162;18.294;2022-11-25T06:51:00;8.88;;;2.22;;
58681;SDS011;44460;40.162;18.294;2022-11-25T06:53:26;4.53;;;1.58;;
58681;SDS011;44460;40.162;18.294;2022-11-25T06:56:09;9.77;;;2.28;;
58681;SDS011;44460;40.162;18.294;2022-11-25T06:58:35;6.57;;;2.22;;
58681;SDS011;44460;40.162;18.294;2022-11-25T07:01:11;5.38;;;1.77;;
58681;SDS011;44460;40.162;18.294;2022-11-25T07:03:37;4.50;;;1.92;;
58681;SDS011;44460;40.162;18.294;2022-11-25T07:06:03;8.30;;;1.90;;
58681;SDS011;44460;40.162;18.294;2022-11-25T07:08:29;8.02;;;2.00;;
58681;SDS011;44460;40.162;18.294;2022-11-25T07:10:55;10.48;;;3.90;;
58681;SDS011;44460;40.162;18.294;2022-11-25T07:13:20;11.93;;;2.95;;
58681;SDS011;44460;40.162;18.294;2022-11-25T07:15:46;6.03;;;2.50;;
58681;SDS011;44460;40.162;18.294;2022-11-25T07:18:12;8.75;;;2.90;;
58681;SDS011;44460;40.162;18.294;2022-11-25T07:20:37;11.25;;;3.90;;
58681;SDS011;44460;40.162;18.294;2022-11-25T07:23:03;16.30;;;5.18;;
58681;SDS011;44460;40.162;18.294;2022-11-25T07:25:28;12.68;;;4.20;;
58681;SDS011;44460;40.162;18.294;2022-11-25T07:27:54;11.57;;;4.97;;
58681;SDS011;44460;40.162;18.294;2022-11-25T07:30:19;22.05;;;6.78;;
58681;SDS011;44460;40.162;18.294;2022-11-25T07:32:45;23.98;;;10.40;;
58681;SDS011;44460;40.162;18.294;2022-11-25T07:35:10;10.23;;;4.65;;
58681;SDS011;44460;40.162;18.294;2022-11-25T07:37:35;14.38;;;6.47;;
58681;SDS011;44460;40.162;18.294;2022-11-25T07:40:01;10.40;;;2.90;;
58681;SDS011;44460;40.162;18.294;2022-11-25T07:42:26;11.88;;;3.88;;
58681;SDS011;44460;40.162;18.294;2022-11-25T07:44:52;11.68;;;3.97;;
58681;SDS011;44460;40.162;18.294;2022-11-25T07:47:44;6.45;;;2.50;;
58681;SDS011;44460;40.162;18.294;2022-11-25T07:50:09;9.23;;;3.50;;
58681;SDS011;44460;40.162;18.294;2022-11-25T07:52:37;9.95;;;3.53;;
58681;SDS011;44460;40.162;18.294;2022-11-25T07:55:04;13.02;;;3.67;;
58681;SDS011;44460;40.162;18.294;2022-11-25T07:57:29;8.88;;;3.13;;
58681;SDS011;44460;40.162;18.294;2022-11-25T07:59:55;9.07;;;3.30;;
58681;SDS011;44460;40.162;18.294;2022-11-25T08:02:20;20.95;;;4.22;;
58681;SDS011;44460;40.162;18.294;2022-11-25T08:04:46;8.30;;;2.95;;
58681;SDS011;44460;40.162;18.294;2022-11-25T08:07:11;8.30;;;2.88;;
58681;SDS011;44460;40.162;18.294;2022-11-25T08:09:36;7.15;;;2.90;;
58681;SDS011;44460;40.162;18.294;2022-11-25T08:12:02;9.73;;;3.15;;
58681;SDS011;44460;40.162;18.294;2022-11-25T08:14:27;10.48;;;3.03;;
58681;SDS011;44460;40.162;18.294;2022-11-25T08:16:53;8.00;;;2.88;;
58681;SDS011;44460;40.162;18.294;2022-11-25T08:19:18;8.50;;;3.00;;
58681;SDS011;44460;40.162;18.294;2022-11-25T08:21:44;7.13;;;2.70;;
58681;SDS011;44460;40.162;18.294;2022-11-25T08:24:15;12.80;;;2.65;;
58681;SDS011;44460;40.162;18.294;2022-11-25T08:26:41;24.73;;;3.83;;
58681;SDS011;44460;40.162;18.294;2022-11-25T08:29:07;12.23;;;2.95;;
58681;SDS011;44460;40.162;18.294;2022-11-25T08:31:34;61.03;;;7.38;;
58681;SDS011;44460;40.162;18.294;2022-11-25T08:34:00;20.23;;;3.58;;
58681;SDS011;44460;40.162;18.294;2022-11-25T08:36:26;10.75;;;2.78;;
58681;SDS011;44460;40.162;18.294;2022-11-25T08:38:53;18.52;;;4.60;;
58681;SDS011;44460;40.162;18.294;2022-11-25T08:41:26;9.50;;;3.10;;
58681;SDS011;44460;40.162;18.294;2022-11-25T08:43:53;6.68;;;2.00;;
58681;SDS011;44460;40.162;18.294;2022-11-25T08:46:20;8.10;;;3.22;;
58681;SDS011;44460;40.162;18.294;2022-11-25T08:48:46;8.80;;;2.63;;
58681;SDS011;44460;40.162;18.294;2022-11-25T08:51:13;7.63;;;2.58;;
58681;SDS011;44460;40.162;18.294;2022-11-25T08:53:38;6.57;;;2.27;;
58681;SDS011;44460;40.162;18.294;2022-11-25T08:56:04;7.57;;;2.53;;
58681;SDS011;44460;40.162;18.294;2022-11-25T08:58:30;11.27;;;1.80;;
58681;SDS011;44460;40.162;18.294;2022-11-25T09:00:56;6.43;;;1.63;;
58681;SDS011;44460;40.162;18.294;2022-11-25T09:03:21;8.98;;;2.13;;
58681;SDS011;44460;40.162;18.294;2022-11-25T09:05:47;8.57;;;2.47;;
58681;SDS011;44460;40.162;18.294;2022-11-25T09:08:13;8.32;;;2.28;;
58681;SDS011;44460;40.162;18.294;2022-11-25T09:10:39;9.65;;;2.38;;
58681;SDS011;44460;40.162;18.294;2022-11-25T09:13:04;9.10;;;2.10;;
58681;SDS011;44460;40.162;18.294;2022-11-25T09:15:30;7.97;;;1.85;;
58681;SDS011;44460;40.162;18.294;2022-11-25T09:17:57;6.38;;;1.90;;
58681;SDS011;44460;40.162;18.294;2022-11-25T09:20:22;5.80;;;1.80;;
58681;SDS011;44460;40.162;18.294;2022-11-25T09:22:48;6.47;;;1.80;;
58681;SDS011;44460;40.162;18.294;2022-11-25T09:25:13;8.60;;;1.83;;
58681;SDS011;44460;40.162;18.294;2022-11-25T09:27:38;8.80;;;3.10;;
58681;SDS011;44460;40.162;18.294;2022-11-25T09:30:04;6.97;;;2.85;;
58681;SDS011;44460;40.162;18.294;2022-11-25T09:32:30;6.13;;;2.30;;
58681;SDS011;44460;40.162;18.294;2022-11-25T09:34:55;13.70;;;2.72;;
58681;SDS011;44460;40.162;18.294;2022-11-25T09:37:20;8.20;;;2.30;;
58681;SDS011;44460;40.162;18.294;2022-11-25T09:39:46;6.90;;;2.05;;
58681;SDS011;44460;40.162;18.294;2022-11-25T09:45:22;9.40;;;2.35;;
58681;SDS011;44460;40.162;18.294;2022-11-25T09:48:18;9.70;;;1.98;;
58681;SDS011;44460;40.162;18.294;2022-11-25T09:50:50;7.60;;;2.28;;
58681;SDS011;44460;40.162;18.294;2022-11-25T09:56:01;6.10;;;1.55;;
58681;SDS011;44460;40.162;18.294;2022-11-25T09:58:43;5.65;;;1.83;;
58681;SDS011;44460;40.162;18.294;2022-11-25T10:01:14;49.72;;;7.13;;
58681;SDS011;44460;40.162;18.294;2022-11-25T10:06:44;7.93;;;1.90;;
58681;SDS011;44460;40.162;18.294;2022-11-25T10:09:11;5.20;;;1.60;;
58681;SDS011;44460;40.162;18.294;2022-11-25T10:22:30;3.45;;;1.13;;
58681;SDS011;44460;40.162;18.294;2022-11-25T10:24:57;4.55;;;1.00;;
58681;SDS011;44460;40.162;18.294;2022-11-25T10:27:24;3.10;;;1.20;;
58681;SDS011;44460;40.162;18.294;2022-11-25T10:30:05;2.80;;;1.02;;
58681;SDS011;44460;40.162;18.294;2022-11-25T10:33:21;5.68;;;1.50;;
58681;SDS011;44460;40.162;18.294;2022-11-25T10:35:23;1.88;;;0.90;;
58681;SDS011;44460;40.162;18.294;2022-11-25T10:37:51;3.45;;;1.45;;
58681;SDS011;44460;40.162;18.294;2022-11-25T10:40:19;2.33;;;1.13;;
58681;SDS011;44460;40.162;18.294;2022-11-25T10:42:45;2.03;;;0.98;;
58681;SDS011;44460;40.162;18.294;2022-11-25T10:45:11;4.32;;;1.48;;
58681;SDS011;44460;40.162;18.294;2022-11-25T10:47:54;2.10;;;0.80;;
58681;SDS011;44460;40.162;18.294;2022-11-25T10:50:28;3.58;;;1.35;;
58681;SDS011;44460;40.162;18.294;2022-11-25T10:52:56;6.40;;;1.23;;
58681;SDS011;44460;40.162;18.294;2022-11-25T10:57:51;3.88;;;1.05;;
58681;SDS011;44460;40.162;18.294;2022-11-25T11:02:51;2.47;;;1.05;;
58681;SDS011;44460;40.162;18.294;2022-11-25T11:05:28;3.05;;;1.17;;
58681;SDS011;44460;40.162;18.294;2022-11-25T11:08:08;3.42;;;1.42;;
58681;SDS011;44460;40.162;18.294;2022-11-25T11:10:34;8.65;;;1.40;;
58681;SDS011;44460;40.162;18.294;2022-11-25T11:13:03;3.47;;;1.27;;
58681;SDS011;44460;40.162;18.294;2022-11-25T11:15:30;3.60;;;1.60;;
58681;SDS011;44460;40.162;18.294;2022-11-25T11:17:57;3.70;;;1.50;;
58681;SDS011;44460;40.162;18.294;2022-11-25T11:20:29;5.83;;;2.40;;
58681;SDS011;44460;40.162;18.294;2022-11-25T11:22:56;3.70;;;1.20;;
58681;SDS011;44460;40.162;18.294;2022-11-25T11:25:26;3.33;;;1.45;;
58681;SDS011;44460;40.162;18.294;2022-11-25T11:27:52;2.67;;;1.15;;
58681;SDS011;44460;40.162;18.294;2022-11-25T11:30:18;2.47;;;1.23;;
58681;SDS011;44460;40.162;18.294;2022-11-25T11:32:53;1.73;;;0.90;;
58681;SDS011;44460;40.162;18.294;2022-11-25T11:35:20;1.92;;;1.05;;
58681;SDS011;44460;40.162;18.294;2022-11-25T11:37:53;3.50;;;1.17;;
58681;SDS011;44460;40.162;18.294;2022-11-25T11:40:35;1.77;;;0.73;;
58681;SDS011;44460;40.162;18.294;2022-11-25T11:48:25;11.38;;;2.80;;
58681;SDS011;44460;40.162;18.294;2022-11-25T11:56:11;4.38;;;1.63;;
58681;SDS011;44460;40.162;18.294;2022-11-25T12:01:10;5.90;;;1.98;;
58681;SDS011;44460;40.162;18.294;2022-11-25T12:03:43;5.07;;;1.40;;
58681;SDS011;44460;40.162;18.294;2022-11-25T12:06:13;3.42;;;1.17;;
58681;SDS011;44460;40.162;18.294;2022-11-25T12:08:49;3.25;;;1.10;;
58681;SDS011;44460;40.162;18.294;2022-11-25T12:11:21;3.10;;;1.05;;
58681;SDS011;44460;40.162;18.294;2022-11-25T12:16:19;2.25;;;1.13;;
58681;SDS011;44460;40.162;18.294;2022-11-25T12:18:47;5.90;;;1.70;;
58681;SDS011;44460;40.162;18.294;2022-11-25T12:24:00;4.47;;;1.67;;
58681;SDS011;44460;40.162;18.294;2022-11-25T12:29:01;13.63;;;2.10;;
58681;SDS011;44460;40.162;18.294;2022-11-25T12:31:30;5.10;;;1.00;;
58681;SDS011;44460;40.162;18.294;2022-11-25T12:34:04;3.03;;;1.08;;
58681;SDS011;44460;40.162;18.294;2022-11-25T12:39:04;2.83;;;1.30;;
58681;SDS011;44460;40.162;18.294;2022-11-25T12:44:03;3.58;;;1.40;;
58681;SDS011;44460;40.162;18.294;2022-11-25T12:46:35;1.63;;;1.05;;
58681;SDS011;44460;40.162;18.294;2022-11-25T12:49:01;4.70;;;1.38;;
58681;SDS011;44460;40.162;18.294;2022-11-25T12:51:45;4.88;;;1.50;;
58681;SDS011;44460;40.162;18.294;2022-11-25T12:57:10;7.72;;;1.80;;
58681;SDS011;44460;40.162;18.294;2022-11-25T13:04:38;52.20;;;5.80;;
58681;SDS011;44460;40.162;18.294;2022-11-25T13:12:35;20.13;;;2.67;;
58681;SDS011;44460;40.162;18.294;2022-11-25T13:15:19;14.68;;;2.28;;
58681;SDS011;44460;40.162;18.294;2022-11-25T13:17:46;8.60;;;1.75;;
58681;SDS011;44460;40.162;18.294;2022-11-25T13:25:40;16.50;;;3.58;;
58681;SDS011;44460;40.162;18.294;2022-11-25T13:36:17;8.77;;;3.55;;
58681;SDS011;44460;40.162;18.294;2022-11-25T13:44:47;10.30;;;2.90;;
58681;SDS011;44460;40.162;18.294;2022-11-25T13:46:39;229.02;;;23.02;;
58681;SDS011;44460;40.162;18.294;2022-11-25T13:49:20;19.48;;;3.00;;
58681;SDS011;44460;40.162;18.294;2022-11-25T13:51:50;8.52;;;2.40;;
58681;SDS011;44460;40.162;18.294;2022-11-25T13:54:16;13.73;;;2.88;;
58681;SDS011;44460;40.162;18.294;2022-11-25T13:56:42;5.73;;;1.73;;
58681;SDS011;44460;40.162;18.294;2022-11-25T13:59:35;15.35;;;9.25;;
58681;SDS011;44460;40.162;18.294;2022-11-25T14:07:34;6.60;;;3.38;;
58681;SDS011;44460;40.162;18.294;2022-11-25T14:10:06;7.28;;;2.47;;
58681;SDS011;44460;40.162;18.294;2022-11-25T14:12:42;4.68;;;1.65;;
58681;SDS011;44460;40.162;18.294;2022-11-25T14:18:08;10.65;;;4.45;;
58681;SDS011;44460;40.162;18.294;2022-11-25T14:23:22;10.48;;;2.60;;
58681;SDS011;44460;40.162;18.294;2022-11-25T14:25:51;5.97;;;2.10;;
58681;SDS011;44460;40.162;18.294;2022-11-25T14:30:47;16.40;;;3.65;;
58681;SDS011;44460;40.162;18.294;2022-11-25T14:33:15;9.60;;;4.30;;
58681;SDS011;44460;40.162;18.294;2022-11-25T14:35:43;9.27;;;3.45;;
58681;SDS011;44460;40.162;18.294;2022-11-25T14:38:45;12.93;;;4.07;;
58681;SDS011;44460;40.162;18.294;2022-11-25T14:41:04;8.70;;;3.33;;
58681;SDS011;44460;40.162;18.294;2022-11-25T14:43:33;8.25;;;3.47;;
58681;SDS011;44460;40.162;18.294;2022-11-25T14:48:33;6.47;;;2.72;;
58681;SDS011;44460;40.162;18.294;2022-11-25T14:50:59;6.75;;;2.30;;
58681;SDS011;44460;40.162;18.294;2022-11-25T14:53:25;5.38;;;1.80;;
58681;SDS011;44460;40.162;18.294;2022-11-25T14:55:51;9.68;;;3.05;;
58681;SDS011;44460;40.162;18.294;2022-11-25T14:58:17;6.78;;;2.45;;
58681;SDS011;44460;40.162;18.294;2022-11-25T15:00:49;8.38;;;2.15;;
58681;SDS011;44460;40.162;18.294;2022-11-25T19:20:19;22.73;;;14.33;;
58681;SDS011;44460;40.162;18.294;2022-11-25T19:22:45;27.77;;;16.55;;
58681;SDS011;44460;40.162;18.294;2022-11-25T19:25:11;49.08;;;28.83;;
58681;SDS011;44460;40.162;18.294;2022-11-25T19:27:38;32.97;;;20.15;;
58681;SDS011;44460;40.162;18.294;2022-11-25T19:30:05;30.13;;;19.35;;
58681;SDS011;44460;40.162;18.294;2022-11-25T19:32:31;32.38;;;18.85;;
58681;SDS011;44460;40.162;18.294;2022-11-25T19:34:58;37.03;;;20.98;;
58681;SDS011;44460;40.162;18.294;2022-11-25T19:37:24;36.15;;;22.33;;
58681;SDS011;44460;40.162;18.294;2022-11-25T19:39:51;43.65;;;28.50;;
58681;SDS011;44460;40.162;18.294;2022-11-25T19:42:17;46.92;;;27.60;;
58681;SDS011;44460;40.162;18.294;2022-11-25T19:44:43;49.08;;;28.38;;
58681;SDS011;44460;40.162;18.294;2022-11-25T19:47:13;43.85;;;27.38;;
58681;SDS011;44460;40.162;18.294;2022-11-25T19:49:39;38.63;;;21.75;;
58681;SDS011;44460;40.162;18.294;2022-11-25T19:52:07;38.95;;;24.35;;
58681;SDS011;44460;40.162;18.294;2022-11-25T19:54:37;37.85;;;20.40;;
58681;SDS011;44460;40.162;18.294;2022-11-25T19:57:02;33.47;;;20.63;;
58681;SDS011;44460;40.162;18.294;2022-11-25T19:59:28;52.45;;;29.30;;
58681;SDS011;44460;40.162;18.294;2022-11-25T20:01:53;56.85;;;33.75;;
58681;SDS011;44460;40.162;18.294;2022-11-25T20:04:19;55.20;;;32.80;;
58681;SDS011;44460;40.162;18.294;2022-11-25T20:06:45;54.63;;;32.88;;
58681;SDS011;44460;40.162;18.294;2022-11-25T20:09:11;41.58;;;26.33;;
58681;SDS011;44460;40.162;18.294;2022-11-25T20:11:37;42.83;;;25.25;;
58681;SDS011;44460;40.162;18.294;2022-11-25T20:14:03;42.92;;;25.80;;
58681;SDS011;44460;40.162;18.294;2022-11-25T20:16:31;52.47;;;31.60;;
58681;SDS011;44460;40.162;18.294;2022-11-25T20:18:58;44.28;;;29.70;;
58681;SDS011;44460;40.162;18.294;2022-11-25T20:21:29;38.03;;;25.52;;
58681;SDS011;44460;40.162;18.294;2022-11-25T20:23:56;37.80;;;25.58;;
58681;SDS011;44460;40.162;18.294;2022-11-25T20:26:33;39.17;;;25.42;;
58681;SDS011;44460;40.162;18.294;2022-11-25T20:28:59;47.28;;;29.73;;
58681;SDS011;44460;40.162;18.294;2022-11-25T20:31:24;44.83;;;30.23;;
58681;SDS011;44460;40.162;18.294;2022-11-25T20:33:52;48.97;;;29.63;;